sensor_id;sensor_type;location;lat;lon;timestamp;P1;durP1;ratioP1;P2;durP2;ratioP2
26478;SDS011;14163;-26.142;27.992;2022-10-16T00:00:14;24.73;;;22.23;;
26478;SDS011;14163;-26.142;27.992;2022-10-16T00:02:43;27.30;;;24.20;;
26478;SDS011;14163;-26.142;27.992;2022-10-16T00:05:12;26.80;;;23.63;;
26478;SDS011;14163;-26.142;27.992;2022-10-16T00:07:42;24.07;;;21.73;;
26478;SDS011;14163;-26.142;27.992;2022-10-16T00:10:11;24.77;;;22.13;;
26478;SDS011;14163;-26.142;27.992;2022-10-16T00:12:41;28.20;;;24.00;;
26478;SDS011;14163;-26.142;27.992;2022-10-16T00:15:12;30.67;;;27.57;;
26478;SDS011;14163;-26.142;27.992;2022-10-16T00:17:41;29.33;;;26.40;;
26478;SDS011;14163;-26.142;27.992;2022-10-16T00:20:10;27.77;;;24.90;;
26478;SDS011;14163;-26.142;27.992;2022-10-16T00:22:39;27.97;;;25.00;;
26478;SDS011;14163;-26.142;27.992;2022-10-16T00:25:08;29.23;;;26.03;;
26478;SDS011;14163;-26.142;27.992;2022-10-16T00:27:37;28.73;;;25.70;;
26478;SDS011;14163;-26.142;27.992;2022-10-16T00:30:09;32.17;;;28.93;;
26478;SDS011;14163;-26.142;27.992;2022-10-16T00:32:38;34.70;;;31.20;;
26478;SDS011;14163;-26.142;27.992;2022-10-16T00:35:07;38.83;;;34.57;;
26478;SDS011;14163;-26.142;27.992;2022-10-16T00:37:36;52.10;;;46.13;;
26478;SDS011;14163;-26.142;27.992;2022-10-16T00:40:06;47.90;;;43.00;;
26478;SDS011;14163;-26.142;27.992;2022-10-16T00:42:36;53.80;;;48.40;;
26478;SDS011;14163;-26.142;27.992;2022-10-16T00:45:05;53.87;;;48.17;;
26478;SDS011;14163;-26.142;27.992;2022-10-16T00:47:38;61.87;;;55.27;;
26478;SDS011;14163;-26.142;27.992;2022-10-16T00:50:16;62.60;;;55.90;;
26478;SDS011;14163;-26.142;27.992;2022-10-16T00:52:52;65.17;;;58.33;;
26478;SDS011;14163;-26.142;27.992;2022-10-16T00:55:22;67.90;;;60.40;;
26478;SDS011;14163;-26.142;27.992;2022-10-16T00:57:52;67.77;;;60.77;;
26478;SDS011;14163;-26.142;27.992;2022-10-16T01:00:25;71.07;;;63.30;;
26478;SDS011;14163;-26.142;27.992;2022-10-16T01:02:56;69.37;;;61.50;;
26478;SDS011;14163;-26.142;27.992;2022-10-16T01:05:28;71.10;;;63.43;;
26478;SDS011;14163;-26.142;27.992;2022-10-16T01:08:03;68.40;;;61.07;;
26478;SDS011;14163;-26.142;27.992;2022-10-16T01:10:38;70.27;;;58.93;;
26478;SDS011;14163;-26.142;27.992;2022-10-16T01:13:13;60.27;;;53.77;;
26478;SDS011;14163;-26.142;27.992;2022-10-16T01:15:52;54.60;;;45.33;;
26478;SDS011;14163;-26.142;27.992;2022-10-16T01:18:28;47.73;;;42.37;;
26478;SDS011;14163;-26.142;27.992;2022-10-16T01:21:02;42.20;;;37.60;;
26478;SDS011;14163;-26.142;27.992;2022-10-16T01:23:37;39.23;;;35.10;;
26478;SDS011;14163;-26.142;27.992;2022-10-16T01:26:20;36.87;;;31.30;;
26478;SDS011;14163;-26.142;27.992;2022-10-16T01:29:02;29.47;;;26.47;;
26478;SDS011;14163;-26.142;27.992;2022-10-16T01:31:36;26.33;;;22.93;;
26478;SDS011;14163;-26.142;27.992;2022-10-16T01:34:09;27.90;;;22.07;;
26478;SDS011;14163;-26.142;27.992;2022-10-16T01:36:45;35.80;;;25.30;;
26478;SDS011;14163;-26.142;27.992;2022-10-16T01:39:18;32.10;;;26.60;;
26478;SDS011;14163;-26.142;27.992;2022-10-16T01:41:54;33.37;;;29.80;;
26478;SDS011;14163;-26.142;27.992;2022-10-16T01:44:29;49.67;;;41.20;;
26478;SDS011;14163;-26.142;27.992;2022-10-16T01:47:01;46.53;;;40.63;;
26478;SDS011;14163;-26.142;27.992;2022-10-16T01:49:32;48.03;;;39.27;;
26478;SDS011;14163;-26.142;27.992;2022-10-16T01:52:04;50.10;;;40.50;;
26478;SDS011;14163;-26.142;27.992;2022-10-16T01:54:37;40.80;;;35.20;;
26478;SDS011;14163;-26.142;27.992;2022-10-16T01:57:09;33.43;;;28.30;;
26478;SDS011;14163;-26.142;27.992;2022-10-16T01:59:44;34.53;;;29.07;;
26478;SDS011;14163;-26.142;27.992;2022-10-16T02:02:16;29.33;;;26.10;;
26478;SDS011;14163;-26.142;27.992;2022-10-16T02:04:49;34.93;;;26.93;;
26478;SDS011;14163;-26.142;27.992;2022-10-16T02:07:22;32.40;;;25.97;;
26478;SDS011;14163;-26.142;27.992;2022-10-16T02:09:51;32.43;;;25.50;;
26478;SDS011;14163;-26.142;27.992;2022-10-16T02:12:22;27.50;;;24.53;;
26478;SDS011;14163;-26.142;27.992;2022-10-16T02:14:56;27.20;;;23.20;;
26478;SDS011;14163;-26.142;27.992;2022-10-16T02:17:25;29.73;;;25.53;;
26478;SDS011;14163;-26.142;27.992;2022-10-16T02:19:54;25.87;;;23.17;;
26478;SDS011;14163;-26.142;27.992;2022-10-16T02:22:26;30.00;;;26.10;;
26478;SDS011;14163;-26.142;27.992;2022-10-16T02:24:58;33.70;;;26.30;;
26478;SDS011;14163;-26.142;27.992;2022-10-16T02:27:31;30.60;;;26.40;;
26478;SDS011;14163;-26.142;27.992;2022-10-16T02:30:07;32.97;;;27.80;;
26478;SDS011;14163;-26.142;27.992;2022-10-16T02:32:41;37.13;;;29.50;;
26478;SDS011;14163;-26.142;27.992;2022-10-16T02:35:13;36.37;;;30.13;;
26478;SDS011;14163;-26.142;27.992;2022-10-16T02:37:46;40.27;;;32.20;;
26478;SDS011;14163;-26.142;27.992;2022-10-16T02:40:17;40.83;;;34.03;;
26478;SDS011;14163;-26.142;27.992;2022-10-16T02:42:49;41.20;;;34.07;;
26478;SDS011;14163;-26.142;27.992;2022-10-16T02:45:22;43.03;;;33.47;;
26478;SDS011;14163;-26.142;27.992;2022-10-16T02:47:51;54.37;;;35.97;;
26478;SDS011;14163;-26.142;27.992;2022-10-16T02:50:21;40.83;;;35.87;;
26478;SDS011;14163;-26.142;27.992;2022-10-16T02:52:50;41.67;;;33.97;;
26478;SDS011;14163;-26.142;27.992;2022-10-16T02:55:20;42.07;;;34.30;;
26478;SDS011;14163;-26.142;27.992;2022-10-16T02:57:49;42.30;;;35.10;;
26478;SDS011;14163;-26.142;27.992;2022-10-16T03:00:18;47.30;;;33.37;;
26478;SDS011;14163;-26.142;27.992;2022-10-16T03:02:49;39.63;;;31.80;;
26478;SDS011;14163;-26.142;27.992;2022-10-16T03:05:19;39.13;;;32.17;;
26478;SDS011;14163;-26.142;27.992;2022-10-16T03:07:49;37.77;;;33.57;;
26478;SDS011;14163;-26.142;27.992;2022-10-16T03:10:19;37.23;;;32.60;;
26478;SDS011;14163;-26.142;27.992;2022-10-16T03:12:49;38.57;;;33.53;;
26478;SDS011;14163;-26.142;27.992;2022-10-16T03:15:22;38.73;;;34.07;;
26478;SDS011;14163;-26.142;27.992;2022-10-16T03:17:54;44.13;;;34.80;;
26478;SDS011;14163;-26.142;27.992;2022-10-16T03:20:25;42.07;;;35.43;;
26478;SDS011;14163;-26.142;27.992;2022-10-16T03:22:54;38.03;;;32.37;;
26478;SDS011;14163;-26.142;27.992;2022-10-16T03:25:23;38.63;;;32.37;;
26478;SDS011;14163;-26.142;27.992;2022-10-16T03:27:53;45.83;;;35.30;;
26478;SDS011;14163;-26.142;27.992;2022-10-16T03:30:23;39.90;;;32.00;;
26478;SDS011;14163;-26.142;27.992;2022-10-16T03:32:53;40.13;;;31.47;;
26478;SDS011;14163;-26.142;27.992;2022-10-16T03:35:22;42.70;;;33.17;;
26478;SDS011;14163;-26.142;27.992;2022-10-16T03:37:52;42.33;;;33.80;;
26478;SDS011;14163;-26.142;27.992;2022-10-16T03:40:22;41.47;;;32.97;;
26478;SDS011;14163;-26.142;27.992;2022-10-16T03:42:51;37.10;;;31.60;;
26478;SDS011;14163;-26.142;27.992;2022-10-16T03:45:24;40.93;;;31.63;;
26478;SDS011;14163;-26.142;27.992;2022-10-16T03:47:53;38.70;;;31.20;;
26478;SDS011;14163;-26.142;27.992;2022-10-16T03:50:23;36.93;;;30.93;;
26478;SDS011;14163;-26.142;27.992;2022-10-16T03:52:52;37.77;;;30.20;;
26478;SDS011;14163;-26.142;27.992;2022-10-16T03:55:21;39.33;;;30.10;;
26478;SDS011;14163;-26.142;27.992;2022-10-16T03:57:50;41.73;;;31.30;;
26478;SDS011;14163;-26.142;27.992;2022-10-16T04:00:19;36.73;;;31.07;;
26478;SDS011;14163;-26.142;27.992;2022-10-16T04:02:50;38.90;;;31.30;;
26478;SDS011;14163;-26.142;27.992;2022-10-16T04:05:19;41.43;;;32.27;;
26478;SDS011;14163;-26.142;27.992;2022-10-16T04:07:48;44.37;;;33.23;;
26478;SDS011;14163;-26.142;27.992;2022-10-16T04:10:18;37.37;;;31.60;;
26478;SDS011;14163;-26.142;27.992;2022-10-16T04:12:47;38.30;;;30.40;;
26478;SDS011;14163;-26.142;27.992;2022-10-16T04:15:16;42.70;;;31.70;;
26478;SDS011;14163;-26.142;27.992;2022-10-16T04:17:45;39.17;;;31.30;;
26478;SDS011;14163;-26.142;27.992;2022-10-16T04:20:16;45.10;;;34.80;;
26478;SDS011;14163;-26.142;27.992;2022-10-16T04:22:45;39.63;;;31.73;;
26478;SDS011;14163;-26.142;27.992;2022-10-16T04:25:14;42.83;;;31.77;;
26478;SDS011;14163;-26.142;27.992;2022-10-16T04:27:43;40.80;;;31.67;;
26478;SDS011;14163;-26.142;27.992;2022-10-16T04:30:13;42.27;;;31.50;;
26478;SDS011;14163;-26.142;27.992;2022-10-16T04:32:42;37.50;;;28.70;;
26478;SDS011;14163;-26.142;27.992;2022-10-16T04:35:17;38.70;;;28.90;;
26478;SDS011;14163;-26.142;27.992;2022-10-16T04:37:47;37.00;;;29.20;;
26478;SDS011;14163;-26.142;27.992;2022-10-16T04:40:16;38.83;;;29.60;;
26478;SDS011;14163;-26.142;27.992;2022-10-16T04:42:46;43.07;;;31.20;;
26478;SDS011;14163;-26.142;27.992;2022-10-16T04:45:15;38.50;;;29.10;;
26478;SDS011;14163;-26.142;27.992;2022-10-16T04:47:45;38.83;;;30.13;;
26478;SDS011;14163;-26.142;27.992;2022-10-16T04:50:17;42.73;;;32.43;;
26478;SDS011;14163;-26.142;27.992;2022-10-16T04:52:46;37.77;;;29.30;;
26478;SDS011;14163;-26.142;27.992;2022-10-16T04:55:15;39.17;;;30.77;;
26478;SDS011;14163;-26.142;27.992;2022-10-16T04:57:45;38.77;;;30.90;;
26478;SDS011;14163;-26.142;27.992;2022-10-16T05:00:15;40.97;;;32.77;;
26478;SDS011;14163;-26.142;27.992;2022-10-16T05:02:46;42.00;;;31.93;;
26478;SDS011;14163;-26.142;27.992;2022-10-16T05:05:16;46.50;;;32.20;;
26478;SDS011;14163;-26.142;27.992;2022-10-16T05:07:46;38.93;;;30.23;;
26478;SDS011;14163;-26.142;27.992;2022-10-16T05:10:17;38.83;;;28.83;;
26478;SDS011;14163;-26.142;27.992;2022-10-16T05:12:47;44.00;;;31.03;;
26478;SDS011;14163;-26.142;27.992;2022-10-16T05:15:16;40.67;;;30.20;;
26478;SDS011;14163;-26.142;27.992;2022-10-16T05:17:46;40.53;;;28.67;;
26478;SDS011;14163;-26.142;27.992;2022-10-16T05:20:17;37.07;;;27.93;;
26478;SDS011;14163;-26.142;27.992;2022-10-16T05:22:47;38.27;;;29.80;;
26478;SDS011;14163;-26.142;27.992;2022-10-16T05:25:16;35.53;;;27.80;;
26478;SDS011;14163;-26.142;27.992;2022-10-16T05:27:47;34.67;;;27.57;;
26478;SDS011;14163;-26.142;27.992;2022-10-16T05:30:16;35.47;;;28.73;;
26478;SDS011;14163;-26.142;27.992;2022-10-16T05:32:46;32.90;;;26.80;;
26478;SDS011;14163;-26.142;27.992;2022-10-16T05:35:18;39.50;;;29.00;;
26478;SDS011;14163;-26.142;27.992;2022-10-16T05:37:47;37.23;;;27.63;;
26478;SDS011;14163;-26.142;27.992;2022-10-16T05:40:16;32.17;;;26.47;;
26478;SDS011;14163;-26.142;27.992;2022-10-16T05:42:45;35.17;;;27.30;;
26478;SDS011;14163;-26.142;27.992;2022-10-16T05:45:15;33.87;;;26.43;;
26478;SDS011;14163;-26.142;27.992;2022-10-16T05:47:44;33.53;;;27.50;;
26478;SDS011;14163;-26.142;27.992;2022-10-16T05:50:13;31.70;;;26.77;;
26478;SDS011;14163;-26.142;27.992;2022-10-16T05:52:44;33.10;;;26.57;;
26478;SDS011;14163;-26.142;27.992;2022-10-16T05:55:13;31.10;;;27.07;;
26478;SDS011;14163;-26.142;27.992;2022-10-16T05:57:42;35.53;;;28.53;;
26478;SDS011;14163;-26.142;27.992;2022-10-16T06:00:12;33.83;;;28.17;;
26478;SDS011;14163;-26.142;27.992;2022-10-16T06:02:41;34.87;;;28.53;;
26478;SDS011;14163;-26.142;27.992;2022-10-16T06:05:10;35.87;;;28.80;;
26478;SDS011;14163;-26.142;27.992;2022-10-16T06:07:39;31.70;;;26.50;;
26478;SDS011;14163;-26.142;27.992;2022-10-16T06:10:10;30.00;;;25.40;;
26478;SDS011;14163;-26.142;27.992;2022-10-16T06:12:40;31.53;;;25.43;;
26478;SDS011;14163;-26.142;27.992;2022-10-16T06:15:09;34.30;;;26.77;;
26478;SDS011;14163;-26.142;27.992;2022-10-16T06:17:38;30.70;;;25.47;;
26478;SDS011;14163;-26.142;27.992;2022-10-16T06:20:08;32.93;;;26.70;;
26478;SDS011;14163;-26.142;27.992;2022-10-16T06:22:37;35.67;;;24.77;;
26478;SDS011;14163;-26.142;27.992;2022-10-16T06:25:07;29.63;;;24.93;;
26478;SDS011;14163;-26.142;27.992;2022-10-16T06:27:38;29.40;;;23.23;;
26478;SDS011;14163;-26.142;27.992;2022-10-16T06:30:08;28.67;;;23.33;;
26478;SDS011;14163;-26.142;27.992;2022-10-16T06:32:38;33.27;;;23.13;;
26478;SDS011;14163;-26.142;27.992;2022-10-16T06:35:07;25.37;;;21.23;;
26478;SDS011;14163;-26.142;27.992;2022-10-16T06:37:38;24.47;;;21.57;;
26478;SDS011;14163;-26.142;27.992;2022-10-16T06:40:07;24.10;;;20.27;;
26478;SDS011;14163;-26.142;27.992;2022-10-16T06:42:38;23.80;;;20.13;;
26478;SDS011;14163;-26.142;27.992;2022-10-16T06:45:08;25.23;;;20.50;;
26478;SDS011;14163;-26.142;27.992;2022-10-16T06:47:38;26.10;;;21.40;;
26478;SDS011;14163;-26.142;27.992;2022-10-16T06:50:07;27.30;;;20.20;;
26478;SDS011;14163;-26.142;27.992;2022-10-16T06:52:37;31.13;;;20.80;;
26478;SDS011;14163;-26.142;27.992;2022-10-16T06:55:06;24.70;;;20.63;;
26478;SDS011;14163;-26.142;27.992;2022-10-16T06:57:38;23.67;;;20.10;;
26478;SDS011;14163;-26.142;27.992;2022-10-16T07:00:09;26.13;;;19.10;;
26478;SDS011;14163;-26.142;27.992;2022-10-16T07:02:39;21.20;;;18.87;;
26478;SDS011;14163;-26.142;27.992;2022-10-16T07:05:09;26.47;;;20.20;;
26478;SDS011;14163;-26.142;27.992;2022-10-16T07:07:38;25.97;;;19.27;;
26478;SDS011;14163;-26.142;27.992;2022-10-16T07:10:08;24.73;;;20.30;;
26478;SDS011;14163;-26.142;27.992;2022-10-16T07:12:38;25.37;;;19.50;;
26478;SDS011;14163;-26.142;27.992;2022-10-16T07:15:08;25.53;;;19.20;;
26478;SDS011;14163;-26.142;27.992;2022-10-16T07:17:38;22.30;;;18.80;;
26478;SDS011;14163;-26.142;27.992;2022-10-16T07:20:07;22.20;;;19.30;;
26478;SDS011;14163;-26.142;27.992;2022-10-16T07:22:37;25.93;;;19.87;;
26478;SDS011;14163;-26.142;27.992;2022-10-16T07:25:07;22.07;;;19.53;;
26478;SDS011;14163;-26.142;27.992;2022-10-16T07:27:38;23.40;;;19.33;;
26478;SDS011;14163;-26.142;27.992;2022-10-16T07:30:08;22.57;;;18.47;;
26478;SDS011;14163;-26.142;27.992;2022-10-16T07:32:37;24.70;;;18.43;;
26478;SDS011;14163;-26.142;27.992;2022-10-16T07:35:07;20.23;;;18.13;;
26478;SDS011;14163;-26.142;27.992;2022-10-16T07:37:36;21.50;;;18.43;;
26478;SDS011;14163;-26.142;27.992;2022-10-16T07:40:06;20.70;;;18.00;;
26478;SDS011;14163;-26.142;27.992;2022-10-16T07:42:36;26.13;;;19.10;;
26478;SDS011;14163;-26.142;27.992;2022-10-16T07:45:07;25.27;;;19.33;;
26478;SDS011;14163;-26.142;27.992;2022-10-16T07:47:36;21.10;;;18.70;;
26478;SDS011;14163;-26.142;27.992;2022-10-16T07:50:06;21.63;;;16.70;;
26478;SDS011;14163;-26.142;27.992;2022-10-16T07:52:35;20.37;;;17.33;;
26478;SDS011;14163;-26.142;27.992;2022-10-16T07:55:05;19.47;;;16.73;;
26478;SDS011;14163;-26.142;27.992;2022-10-16T07:57:34;24.47;;;16.73;;
26478;SDS011;14163;-26.142;27.992;2022-10-16T08:00:06;21.20;;;15.50;;
26478;SDS011;14163;-26.142;27.992;2022-10-16T08:02:39;18.30;;;15.83;;
26478;SDS011;14163;-26.142;27.992;2022-10-16T08:05:08;17.40;;;14.60;;
26478;SDS011;14163;-26.142;27.992;2022-10-16T08:07:38;21.20;;;14.00;;
26478;SDS011;14163;-26.142;27.992;2022-10-16T08:10:09;14.80;;;12.23;;
26478;SDS011;14163;-26.142;27.992;2022-10-16T08:12:43;18.00;;;13.10;;
26478;SDS011;14163;-26.142;27.992;2022-10-16T08:15:14;12.57;;;11.30;;
26478;SDS011;14163;-26.142;27.992;2022-10-16T08:17:43;13.50;;;11.77;;
26478;SDS011;14163;-26.142;27.992;2022-10-16T08:20:21;16.70;;;12.30;;
26478;SDS011;14163;-26.142;27.992;2022-10-16T08:22:50;13.27;;;11.97;;
26478;SDS011;14163;-26.142;27.992;2022-10-16T08:25:19;13.53;;;11.40;;
26478;SDS011;14163;-26.142;27.992;2022-10-16T08:27:50;15.00;;;11.20;;
26478;SDS011;14163;-26.142;27.992;2022-10-16T08:30:21;12.93;;;11.53;;
26478;SDS011;14163;-26.142;27.992;2022-10-16T08:32:51;13.83;;;11.60;;
26478;SDS011;14163;-26.142;27.992;2022-10-16T08:35:20;17.00;;;13.30;;
26478;SDS011;14163;-26.142;27.992;2022-10-16T08:37:50;11.93;;;10.77;;
26478;SDS011;14163;-26.142;27.992;2022-10-16T08:40:20;12.90;;;11.60;;
26478;SDS011;14163;-26.142;27.992;2022-10-16T08:46:02;11.90;;;10.73;;
26478;SDS011;14163;-26.142;27.992;2022-10-16T08:48:48;15.83;;;11.23;;
26478;SDS011;14163;-26.142;27.992;2022-10-16T08:51:20;12.63;;;11.40;;
26478;SDS011;14163;-26.142;27.992;2022-10-16T08:53:52;16.33;;;11.90;;
26478;SDS011;14163;-26.142;27.992;2022-10-16T08:56:24;13.10;;;11.30;;
26478;SDS011;14163;-26.142;27.992;2022-10-16T08:58:54;12.13;;;10.83;;
26478;SDS011;14163;-26.142;27.992;2022-10-16T09:01:29;16.60;;;11.10;;
26478;SDS011;14163;-26.142;27.992;2022-10-16T09:04:23;13.43;;;11.10;;
26478;SDS011;14163;-26.142;27.992;2022-10-16T09:07:11;14.07;;;11.27;;
26478;SDS011;14163;-26.142;27.992;2022-10-16T09:09:49;13.73;;;11.10;;
26478;SDS011;14163;-26.142;27.992;2022-10-16T09:12:31;15.17;;;10.10;;
26478;SDS011;14163;-26.142;27.992;2022-10-16T09:15:11;32.83;;;10.80;;
26478;SDS011;14163;-26.142;27.992;2022-10-16T09:17:51;12.83;;;9.20;;
26478;SDS011;14163;-26.142;27.992;2022-10-16T09:20:31;12.43;;;10.37;;
26478;SDS011;14163;-26.142;27.992;2022-10-16T09:23:14;11.00;;;9.87;;
26478;SDS011;14163;-26.142;27.992;2022-10-16T09:25:46;12.20;;;10.57;;
26478;SDS011;14163;-26.142;27.992;2022-10-16T09:28:16;13.90;;;10.47;;
26478;SDS011;14163;-26.142;27.992;2022-10-16T09:30:46;14.97;;;10.67;;
26478;SDS011;14163;-26.142;27.992;2022-10-16T09:33:18;12.53;;;9.37;;
26478;SDS011;14163;-26.142;27.992;2022-10-16T09:35:50;15.27;;;10.30;;
26478;SDS011;14163;-26.142;27.992;2022-10-16T09:38:21;11.83;;;9.80;;
26478;SDS011;14163;-26.142;27.992;2022-10-16T09:40:52;16.30;;;10.27;;
26478;SDS011;14163;-26.142;27.992;2022-10-16T09:43:22;11.97;;;10.80;;
26478;SDS011;14163;-26.142;27.992;2022-10-16T09:45:56;10.90;;;9.80;;
26478;SDS011;14163;-26.142;27.992;2022-10-16T09:48:30;17.33;;;11.17;;
26478;SDS011;14163;-26.142;27.992;2022-10-16T09:51:04;13.77;;;9.93;;
26478;SDS011;14163;-26.142;27.992;2022-10-16T09:53:43;13.73;;;10.87;;
26478;SDS011;14163;-26.142;27.992;2022-10-16T09:56:21;22.53;;;11.37;;
26478;SDS011;14163;-26.142;27.992;2022-10-16T09:58:51;11.27;;;10.10;;
26478;SDS011;14163;-26.142;27.992;2022-10-16T10:01:22;12.47;;;9.87;;
26478;SDS011;14163;-26.142;27.992;2022-10-16T10:03:58;15.50;;;10.40;;
26478;SDS011;14163;-26.142;27.992;2022-10-16T12:09:46;10.87;;;9.83;;
26478;SDS011;14163;-26.142;27.992;2022-10-16T12:15:18;15.47;;;9.90;;
26478;SDS011;14163;-26.142;27.992;2022-10-16T12:17:51;12.13;;;9.57;;
26478;SDS011;14163;-26.142;27.992;2022-10-16T12:20:25;14.40;;;10.63;;
26478;SDS011;14163;-26.142;27.992;2022-10-16T12:22:58;9.80;;;8.90;;
26478;SDS011;14163;-26.142;27.992;2022-10-16T12:25:33;10.80;;;9.80;;
26478;SDS011;14163;-26.142;27.992;2022-10-16T12:28:17;11.63;;;10.03;;
26478;SDS011;14163;-26.142;27.992;2022-10-16T12:30:52;11.60;;;10.50;;
26478;SDS011;14163;-26.142;27.992;2022-10-16T12:33:24;10.57;;;9.57;;
26478;SDS011;14163;-26.142;27.992;2022-10-16T12:35:55;11.30;;;9.47;;
26478;SDS011;14163;-26.142;27.992;2022-10-16T12:38:26;9.93;;;8.97;;
26478;SDS011;14163;-26.142;27.992;2022-10-16T12:41:02;12.57;;;9.70;;
26478;SDS011;14163;-26.142;27.992;2022-10-16T12:43:37;11.70;;;9.90;;
26478;SDS011;14163;-26.142;27.992;2022-10-16T12:46:23;12.47;;;10.20;;
26478;SDS011;14163;-26.142;27.992;2022-10-16T12:49:06;13.23;;;10.57;;
26478;SDS011;14163;-26.142;27.992;2022-10-16T12:51:58;11.40;;;9.90;;
26478;SDS011;14163;-26.142;27.992;2022-10-16T12:54:28;19.80;;;11.77;;
26478;SDS011;14163;-26.142;27.992;2022-10-16T13:00:02;12.93;;;11.23;;
26478;SDS011;14163;-26.142;27.992;2022-10-16T13:02:55;14.73;;;10.27;;
26478;SDS011;14163;-26.142;27.992;2022-10-16T13:05:50;10.70;;;9.67;;
26478;SDS011;14163;-26.142;27.992;2022-10-16T13:08:37;13.20;;;9.80;;
26478;SDS011;14163;-26.142;27.992;2022-10-16T13:11:18;11.20;;;10.10;;
26478;SDS011;14163;-26.142;27.992;2022-10-16T13:14:07;12.43;;;10.37;;
26478;SDS011;14163;-26.142;27.992;2022-10-16T13:16:54;10.73;;;9.80;;
26478;SDS011;14163;-26.142;27.992;2022-10-16T13:19:35;12.20;;;9.97;;
26478;SDS011;14163;-26.142;27.992;2022-10-16T13:22:15;14.23;;;11.53;;
26478;SDS011;14163;-26.142;27.992;2022-10-16T13:24:52;11.40;;;10.23;;
26478;SDS011;14163;-26.142;27.992;2022-10-16T13:27:33;11.37;;;10.27;;
26478;SDS011;14163;-26.142;27.992;2022-10-16T13:30:11;11.30;;;10.10;;
26478;SDS011;14163;-26.142;27.992;2022-10-16T13:32:48;14.43;;;10.87;;
26478;SDS011;14163;-26.142;27.992;2022-10-16T13:35:23;15.37;;;10.43;;
26478;SDS011;14163;-26.142;27.992;2022-10-16T13:38:03;13.73;;;10.50;;
26478;SDS011;14163;-26.142;27.992;2022-10-16T13:40:53;32.97;;;11.50;;
26478;SDS011;14163;-26.142;27.992;2022-10-16T13:43:26;11.17;;;10.07;;
26478;SDS011;14163;-26.142;27.992;2022-10-16T13:45:58;11.83;;;10.73;;
26478;SDS011;14163;-26.142;27.992;2022-10-16T13:48:32;11.50;;;10.33;;
26478;SDS011;14163;-26.142;27.992;2022-10-16T13:51:03;12.10;;;10.80;;
26478;SDS011;14163;-26.142;27.992;2022-10-16T13:53:35;11.00;;;9.90;;
26478;SDS011;14163;-26.142;27.992;2022-10-16T13:56:06;11.13;;;10.23;;
26478;SDS011;14163;-26.142;27.992;2022-10-16T13:58:40;14.73;;;11.73;;
26478;SDS011;14163;-26.142;27.992;2022-10-16T14:01:15;10.90;;;9.90;;
26478;SDS011;14163;-26.142;27.992;2022-10-16T14:03:49;11.40;;;10.30;;
26478;SDS011;14163;-26.142;27.992;2022-10-16T14:06:19;10.87;;;9.80;;
26478;SDS011;14163;-26.142;27.992;2022-10-16T14:08:50;11.87;;;10.50;;
26478;SDS011;14163;-26.142;27.992;2022-10-16T14:11:28;10.87;;;9.73;;
26478;SDS011;14163;-26.142;27.992;2022-10-16T14:13:57;15.57;;;9.70;;
26478;SDS011;14163;-26.142;27.992;2022-10-16T14:16:28;12.10;;;10.00;;
26478;SDS011;14163;-26.142;27.992;2022-10-16T14:19:01;18.80;;;9.70;;
26478;SDS011;14163;-26.142;27.992;2022-10-16T14:21:34;10.30;;;9.30;;
26478;SDS011;14163;-26.142;27.992;2022-10-16T14:24:10;12.13;;;10.17;;
26478;SDS011;14163;-26.142;27.992;2022-10-16T14:26:41;13.17;;;9.57;;
26478;SDS011;14163;-26.142;27.992;2022-10-16T14:29:13;12.87;;;9.67;;
26478;SDS011;14163;-26.142;27.992;2022-10-16T14:31:54;11.73;;;9.63;;
26478;SDS011;14163;-26.142;27.992;2022-10-16T14:34:35;11.30;;;10.13;;
26478;SDS011;14163;-26.142;27.992;2022-10-16T14:37:08;11.17;;;10.07;;
26478;SDS011;14163;-26.142;27.992;2022-10-16T14:39:48;10.67;;;9.33;;
26478;SDS011;14163;-26.142;27.992;2022-10-16T14:42:23;11.10;;;10.10;;
26478;SDS011;14163;-26.142;27.992;2022-10-16T14:44:53;11.27;;;10.03;;
26478;SDS011;14163;-26.142;27.992;2022-10-16T14:47:23;11.20;;;10.10;;
26478;SDS011;14163;-26.142;27.992;2022-10-16T14:49:56;13.57;;;9.70;;
26478;SDS011;14163;-26.142;27.992;2022-10-16T14:52:25;10.70;;;9.70;;
26478;SDS011;14163;-26.142;27.992;2022-10-16T14:54:54;10.83;;;9.73;;
26478;SDS011;14163;-26.142;27.992;2022-10-16T14:57:24;9.63;;;8.63;;
26478;SDS011;14163;-26.142;27.992;2022-10-16T14:59:58;10.23;;;9.43;;
26478;SDS011;14163;-26.142;27.992;2022-10-16T15:02:28;10.83;;;9.77;;
26478;SDS011;14163;-26.142;27.992;2022-10-16T15:05:02;10.57;;;9.57;;
26478;SDS011;14163;-26.142;27.992;2022-10-16T15:07:41;10.80;;;9.90;;
26478;SDS011;14163;-26.142;27.992;2022-10-16T15:10:11;14.80;;;10.37;;
26478;SDS011;14163;-26.142;27.992;2022-10-16T15:12:41;10.30;;;9.30;;
26478;SDS011;14163;-26.142;27.992;2022-10-16T15:18:04;11.83;;;10.47;;
26478;SDS011;14163;-26.142;27.992;2022-10-16T15:20:35;11.90;;;10.80;;
26478;SDS011;14163;-26.142;27.992;2022-10-16T15:23:10;11.07;;;10.03;;
26478;SDS011;14163;-26.142;27.992;2022-10-16T15:25:51;11.23;;;9.67;;
26478;SDS011;14163;-26.142;27.992;2022-10-16T15:28:34;12.53;;;11.40;;
26478;SDS011;14163;-26.142;27.992;2022-10-16T15:31:44;12.93;;;11.73;;
26478;SDS011;14163;-26.142;27.992;2022-10-16T15:34:34;11.60;;;10.60;;
26478;SDS011;14163;-26.142;27.992;2022-10-16T15:37:05;12.93;;;10.47;;
26478;SDS011;14163;-26.142;27.992;2022-10-16T15:39:34;12.53;;;11.33;;
26478;SDS011;14163;-26.142;27.992;2022-10-16T15:42:04;11.77;;;10.57;;
26478;SDS011;14163;-26.142;27.992;2022-10-16T15:44:38;13.60;;;10.07;;
26478;SDS011;14163;-26.142;27.992;2022-10-16T15:47:08;11.43;;;10.17;;
26478;SDS011;14163;-26.142;27.992;2022-10-16T15:49:38;12.07;;;9.70;;
26478;SDS011;14163;-26.142;27.992;2022-10-16T15:52:09;11.33;;;9.60;;
26478;SDS011;14163;-26.142;27.992;2022-10-16T15:54:38;12.17;;;8.80;;
26478;SDS011;14163;-26.142;27.992;2022-10-16T15:57:07;11.50;;;9.43;;
26478;SDS011;14163;-26.142;27.992;2022-10-16T15:59:36;11.43;;;10.13;;
26478;SDS011;14163;-26.142;27.992;2022-10-16T16:02:07;10.53;;;9.53;;
26478;SDS011;14163;-26.142;27.992;2022-10-16T16:04:36;10.10;;;9.20;;
26478;SDS011;14163;-26.142;27.992;2022-10-16T16:07:05;12.90;;;9.80;;
26478;SDS011;14163;-26.142;27.992;2022-10-16T16:09:37;13.20;;;10.20;;
26478;SDS011;14163;-26.142;27.992;2022-10-16T16:12:06;12.13;;;9.87;;
26478;SDS011;14163;-26.142;27.992;2022-10-16T16:14:35;11.20;;;9.97;;
26478;SDS011;14163;-26.142;27.992;2022-10-16T16:17:06;13.30;;;10.67;;
26478;SDS011;14163;-26.142;27.992;2022-10-16T16:19:35;11.77;;;10.50;;
26478;SDS011;14163;-26.142;27.992;2022-10-16T16:22:04;12.30;;;10.40;;
26478;SDS011;14163;-26.142;27.992;2022-10-16T16:24:34;13.13;;;10.10;;
26478;SDS011;14163;-26.142;27.992;2022-10-16T16:27:04;11.90;;;10.80;;
26478;SDS011;14163;-26.142;27.992;2022-10-16T16:29:34;12.90;;;9.90;;
26478;SDS011;14163;-26.142;27.992;2022-10-16T16:32:03;13.53;;;10.10;;
26478;SDS011;14163;-26.142;27.992;2022-10-16T16:34:32;11.10;;;10.13;;
26478;SDS011;14163;-26.142;27.992;2022-10-16T16:37:01;10.93;;;9.63;;
26478;SDS011;14163;-26.142;27.992;2022-10-16T16:39:31;14.23;;;11.47;;
26478;SDS011;14163;-26.142;27.992;2022-10-16T16:42:00;11.90;;;10.53;;